Flugplatz Dortmund

Bericht für EDLW

vom 23.01. um 14:20 UTC

Wind 5 kt aus 70°

Sichtweite 9000 m

gering bewölkt in 1900 ft

Temperatur -2.0°C

Taupunkt -6.0°C

Luftfeuchtigkeit 74%

Luftdruck 999 hPa

EDLW 231420Z 07005KT 050V110 9000 FEW019 M02/M06 Q0999

Prognose für EDLW

vom 23.01. um 11:00 UTC

Zwischen 12:00 UTC und 22:00 UTC

Wind 7 kt aus 60°

Sichtweite 10 km oder mehr

aufgebrochene Bewölkung in 3000 ft


Zwischen 22:00 und 01:00 UTC übergehend zu

variable Windrichtung mit 3 kt

Sichtweite 10 km oder mehr

aufgebrochene Bewölkung in 3000 ft

TAF EDLW 231100Z 2312/2412 06007KT 9999 BKN030 BECMG 2322/2401 VRB03KT
Impressum